sensor_id;sensor_type;location;lat;lon;timestamp;P1;durP1;ratioP1;P2;durP2;ratioP2
9657;SDS011;4867;48.112;11.622;2022-07-12T00:02:03;6.10;;;4.00;;
9657;SDS011;4867;48.112;11.622;2022-07-12T00:04:30;5.53;;;4.10;;
9657;SDS011;4867;48.112;11.622;2022-07-12T00:06:57;4.90;;;3.87;;
9657;SDS011;4867;48.112;11.622;2022-07-12T00:09:24;4.43;;;3.80;;
9657;SDS011;4867;48.112;11.622;2022-07-12T00:11:51;4.20;;;3.90;;
9657;SDS011;4867;48.112;11.622;2022-07-12T00:14:18;4.23;;;3.83;;
9657;SDS011;4867;48.112;11.622;2022-07-12T00:16:45;5.13;;;3.50;;
9657;SDS011;4867;48.112;11.622;2022-07-12T00:19:12;4.07;;;3.67;;
9657;SDS011;4867;48.112;11.622;2022-07-12T00:21:39;4.67;;;3.70;;
9657;SDS011;4867;48.112;11.622;2022-07-12T00:24:06;4.17;;;3.53;;
9657;SDS011;4867;48.112;11.622;2022-07-12T00:26:33;3.90;;;3.60;;
9657;SDS011;4867;48.112;11.622;2022-07-12T00:29:00;4.47;;;3.47;;
9657;SDS011;4867;48.112;11.622;2022-07-12T00:31:27;4.73;;;3.77;;
9657;SDS011;4867;48.112;11.622;2022-07-12T00:33:54;4.07;;;3.67;;
9657;SDS011;4867;48.112;11.622;2022-07-12T00:36:21;3.90;;;3.60;;
9657;SDS011;4867;48.112;11.622;2022-07-12T00:38:47;3.87;;;3.57;;
9657;SDS011;4867;48.112;11.622;2022-07-12T00:41:15;4.80;;;3.77;;
9657;SDS011;4867;48.112;11.622;2022-07-12T00:43:42;4.80;;;3.63;;
9657;SDS011;4867;48.112;11.622;2022-07-12T00:46:09;4.07;;;3.67;;
9657;SDS011;4867;48.112;11.622;2022-07-12T00:48:37;4.20;;;3.90;;
9657;SDS011;4867;48.112;11.622;2022-07-12T00:51:04;4.00;;;3.57;;
9657;SDS011;4867;48.112;11.622;2022-07-12T00:53:31;4.27;;;3.87;;
9657;SDS011;4867;48.112;11.622;2022-07-12T00:55:58;4.03;;;3.70;;
9657;SDS011;4867;48.112;11.622;2022-07-12T00:58:25;3.97;;;3.67;;
9657;SDS011;4867;48.112;11.622;2022-07-12T01:00:58;4.20;;;3.80;;
9657;SDS011;4867;48.112;11.622;2022-07-12T01:03:25;3.87;;;3.57;;
9657;SDS011;4867;48.112;11.622;2022-07-12T01:05:54;3.90;;;3.57;;
9657;SDS011;4867;48.112;11.622;2022-07-12T01:08:21;4.10;;;3.70;;
9657;SDS011;4867;48.112;11.622;2022-07-12T01:10:50;4.50;;;3.80;;
9657;SDS011;4867;48.112;11.622;2022-07-12T01:13:17;4.00;;;3.70;;
9657;SDS011;4867;48.112;11.622;2022-07-12T01:15:45;4.37;;;3.93;;
9657;SDS011;4867;48.112;11.622;2022-07-12T01:18:13;4.07;;;3.60;;
9657;SDS011;4867;48.112;11.622;2022-07-12T01:20:42;4.00;;;3.60;;
9657;SDS011;4867;48.112;11.622;2022-07-12T01:23:11;4.43;;;4.03;;
9657;SDS011;4867;48.112;11.622;2022-07-12T01:25:39;4.40;;;4.10;;
9657;SDS011;4867;48.112;11.622;2022-07-12T01:28:06;4.67;;;3.73;;
9657;SDS011;4867;48.112;11.622;2022-07-12T01:30:33;4.20;;;3.80;;
9657;SDS011;4867;48.112;11.622;2022-07-12T01:33:00;4.27;;;3.60;;
9657;SDS011;4867;48.112;11.622;2022-07-12T01:35:27;5.27;;;3.17;;
9657;SDS011;4867;48.112;11.622;2022-07-12T01:37:58;4.13;;;3.10;;
9657;SDS011;4867;48.112;11.622;2022-07-12T01:40:26;3.93;;;3.33;;
9657;SDS011;4867;48.112;11.622;2022-07-12T01:42:53;3.97;;;3.60;;
9657;SDS011;4867;48.112;11.622;2022-07-12T01:45:21;3.90;;;3.53;;
9657;SDS011;4867;48.112;11.622;2022-07-12T01:47:48;4.13;;;3.73;;
9657;SDS011;4867;48.112;11.622;2022-07-12T01:50:15;3.63;;;3.33;;
9657;SDS011;4867;48.112;11.622;2022-07-12T01:52:42;4.10;;;3.70;;
9657;SDS011;4867;48.112;11.622;2022-07-12T01:55:10;3.77;;;3.47;;
9657;SDS011;4867;48.112;11.622;2022-07-12T01:57:40;3.70;;;3.40;;
9657;SDS011;4867;48.112;11.622;2022-07-12T02:00:09;4.80;;;3.67;;
9657;SDS011;4867;48.112;11.622;2022-07-12T02:02:37;4.37;;;3.60;;
9657;SDS011;4867;48.112;11.622;2022-07-12T02:05:04;4.10;;;3.80;;
9657;SDS011;4867;48.112;11.622;2022-07-12T02:07:32;4.33;;;3.83;;
9657;SDS011;4867;48.112;11.622;2022-07-12T02:10:02;4.17;;;3.80;;
9657;SDS011;4867;48.112;11.622;2022-07-12T02:12:31;4.23;;;3.93;;
9657;SDS011;4867;48.112;11.622;2022-07-12T02:14:58;5.50;;;3.63;;
9657;SDS011;4867;48.112;11.622;2022-07-12T02:17:26;4.10;;;3.80;;
9657;SDS011;4867;48.112;11.622;2022-07-12T02:19:53;4.00;;;3.60;;
9657;SDS011;4867;48.112;11.622;2022-07-12T02:22:20;3.70;;;3.40;;
9657;SDS011;4867;48.112;11.622;2022-07-12T02:24:47;4.03;;;3.73;;
9657;SDS011;4867;48.112;11.622;2022-07-12T02:27:14;4.30;;;3.90;;
9657;SDS011;4867;48.112;11.622;2022-07-12T02:29:40;4.00;;;3.60;;
9657;SDS011;4867;48.112;11.622;2022-07-12T02:32:08;4.10;;;3.80;;
9657;SDS011;4867;48.112;11.622;2022-07-12T02:34:36;4.20;;;3.73;;
9657;SDS011;4867;48.112;11.622;2022-07-12T02:37:03;4.07;;;3.70;;
9657;SDS011;4867;48.112;11.622;2022-07-12T02:39:30;3.90;;;3.60;;
9657;SDS011;4867;48.112;11.622;2022-07-12T02:41:56;4.00;;;3.70;;
9657;SDS011;4867;48.112;11.622;2022-07-12T02:44:23;4.10;;;3.80;;
9657;SDS011;4867;48.112;11.622;2022-07-12T02:46:50;4.40;;;4.00;;
9657;SDS011;4867;48.112;11.622;2022-07-12T02:49:18;4.20;;;3.80;;
9657;SDS011;4867;48.112;11.622;2022-07-12T02:51:45;4.50;;;4.10;;
9657;SDS011;4867;48.112;11.622;2022-07-12T02:54:11;4.97;;;4.50;;
9657;SDS011;4867;48.112;11.622;2022-07-12T02:56:38;5.43;;;4.13;;
9657;SDS011;4867;48.112;11.622;2022-07-12T02:59:05;4.73;;;4.33;;
9657;SDS011;4867;48.112;11.622;2022-07-12T03:01:32;4.83;;;4.40;;
9657;SDS011;4867;48.112;11.622;2022-07-12T03:03:59;4.60;;;4.10;;
9657;SDS011;4867;48.112;11.622;2022-07-12T03:06:26;5.20;;;4.50;;
9657;SDS011;4867;48.112;11.622;2022-07-12T03:08:53;4.97;;;4.57;;
9657;SDS011;4867;48.112;11.622;2022-07-12T03:11:19;4.63;;;4.27;;
9657;SDS011;4867;48.112;11.622;2022-07-12T03:13:46;12.20;;;4.20;;
9657;SDS011;4867;48.112;11.622;2022-07-12T03:16:13;5.40;;;4.63;;
9657;SDS011;4867;48.112;11.622;2022-07-12T03:18:40;6.00;;;4.50;;
9657;SDS011;4867;48.112;11.622;2022-07-12T03:21:08;5.20;;;4.70;;
9657;SDS011;4867;48.112;11.622;2022-07-12T03:23:35;4.50;;;4.10;;
9657;SDS011;4867;48.112;11.622;2022-07-12T03:26:02;5.00;;;4.27;;
9657;SDS011;4867;48.112;11.622;2022-07-12T03:28:29;5.53;;;4.53;;
9657;SDS011;4867;48.112;11.622;2022-07-12T03:30:57;7.03;;;4.83;;
9657;SDS011;4867;48.112;11.622;2022-07-12T03:33:24;7.33;;;5.00;;
9657;SDS011;4867;48.112;11.622;2022-07-12T03:35:59;5.27;;;4.83;;
9657;SDS011;4867;48.112;11.622;2022-07-12T03:38:27;4.67;;;4.27;;
9657;SDS011;4867;48.112;11.622;2022-07-12T03:40:54;5.00;;;4.60;;
9657;SDS011;4867;48.112;11.622;2022-07-12T03:43:21;6.97;;;5.17;;
9657;SDS011;4867;48.112;11.622;2022-07-12T03:45:48;5.00;;;4.50;;
9657;SDS011;4867;48.112;11.622;2022-07-12T03:48:18;6.43;;;4.83;;
9657;SDS011;4867;48.112;11.622;2022-07-12T03:50:45;6.43;;;5.00;;
9657;SDS011;4867;48.112;11.622;2022-07-12T03:53:15;7.60;;;5.10;;
9657;SDS011;4867;48.112;11.622;2022-07-12T03:55:42;6.23;;;5.63;;
9657;SDS011;4867;48.112;11.622;2022-07-12T03:58:09;5.90;;;5.40;;
9657;SDS011;4867;48.112;11.622;2022-07-12T04:00:36;5.90;;;5.40;;
9657;SDS011;4867;48.112;11.622;2022-07-12T04:03:04;5.63;;;5.00;;
9657;SDS011;4867;48.112;11.622;2022-07-12T04:05:31;5.50;;;5.00;;
9657;SDS011;4867;48.112;11.622;2022-07-12T04:07:58;5.73;;;5.20;;
9657;SDS011;4867;48.112;11.622;2022-07-12T04:10:27;6.70;;;5.07;;
9657;SDS011;4867;48.112;11.622;2022-07-12T04:12:55;6.20;;;5.40;;
9657;SDS011;4867;48.112;11.622;2022-07-12T04:15:22;5.37;;;4.87;;
9657;SDS011;4867;48.112;11.622;2022-07-12T04:17:49;8.90;;;5.10;;
9657;SDS011;4867;48.112;11.622;2022-07-12T04:20:16;5.90;;;5.10;;
9657;SDS011;4867;48.112;11.622;2022-07-12T04:22:43;4.67;;;4.27;;
9657;SDS011;4867;48.112;11.622;2022-07-12T04:25:10;7.63;;;4.97;;
9657;SDS011;4867;48.112;11.622;2022-07-12T04:27:37;7.07;;;4.47;;
9657;SDS011;4867;48.112;11.622;2022-07-12T04:30:04;4.83;;;4.20;;
9657;SDS011;4867;48.112;11.622;2022-07-12T04:32:31;5.80;;;4.27;;
9657;SDS011;4867;48.112;11.622;2022-07-12T04:34:58;5.93;;;4.53;;
9657;SDS011;4867;48.112;11.622;2022-07-12T04:37:25;4.90;;;4.50;;
9657;SDS011;4867;48.112;11.622;2022-07-12T04:39:52;8.27;;;4.77;;
9657;SDS011;4867;48.112;11.622;2022-07-12T04:42:19;4.73;;;4.27;;
9657;SDS011;4867;48.112;11.622;2022-07-12T04:44:46;5.23;;;4.73;;
9657;SDS011;4867;48.112;11.622;2022-07-12T04:47:13;5.87;;;4.73;;
9657;SDS011;4867;48.112;11.622;2022-07-12T04:49:40;5.27;;;4.60;;
9657;SDS011;4867;48.112;11.622;2022-07-12T04:52:07;5.53;;;4.80;;
9657;SDS011;4867;48.112;11.622;2022-07-12T04:54:34;7.07;;;4.40;;
9657;SDS011;4867;48.112;11.622;2022-07-12T04:57:01;9.90;;;4.90;;
9657;SDS011;4867;48.112;11.622;2022-07-12T04:59:28;7.17;;;4.77;;
9657;SDS011;4867;48.112;11.622;2022-07-12T05:01:55;6.50;;;4.07;;
9657;SDS011;4867;48.112;11.622;2022-07-12T05:04:22;8.37;;;5.10;;
9657;SDS011;4867;48.112;11.622;2022-07-12T05:06:49;4.57;;;4.23;;
9657;SDS011;4867;48.112;11.622;2022-07-12T05:09:16;6.73;;;4.63;;
9657;SDS011;4867;48.112;11.622;2022-07-12T05:11:43;5.33;;;4.77;;
9657;SDS011;4867;48.112;11.622;2022-07-12T05:14:10;8.43;;;4.90;;
9657;SDS011;4867;48.112;11.622;2022-07-12T05:16:37;6.37;;;4.60;;
9657;SDS011;4867;48.112;11.622;2022-07-12T05:19:04;11.47;;;5.90;;
9657;SDS011;4867;48.112;11.622;2022-07-12T05:21:31;13.03;;;4.97;;
9657;SDS011;4867;48.112;11.622;2022-07-12T05:24:02;12.57;;;5.40;;
9657;SDS011;4867;48.112;11.622;2022-07-12T05:26:30;22.47;;;5.50;;
9657;SDS011;4867;48.112;11.622;2022-07-12T05:28:57;9.40;;;5.70;;
9657;SDS011;4867;48.112;11.622;2022-07-12T05:31:24;6.77;;;5.87;;
9657;SDS011;4867;48.112;11.622;2022-07-12T05:33:51;7.20;;;4.80;;
9657;SDS011;4867;48.112;11.622;2022-07-12T05:36:18;5.10;;;4.70;;
9657;SDS011;4867;48.112;11.622;2022-07-12T05:38:46;4.60;;;4.20;;
9657;SDS011;4867;48.112;11.622;2022-07-12T05:41:12;3.50;;;3.20;;
9657;SDS011;4867;48.112;11.622;2022-07-12T05:43:39;4.93;;;3.93;;
9657;SDS011;4867;48.112;11.622;2022-07-12T05:46:06;4.87;;;3.30;;
9657;SDS011;4867;48.112;11.622;2022-07-12T05:48:36;4.60;;;3.10;;
9657;SDS011;4867;48.112;11.622;2022-07-12T05:51:03;3.60;;;3.30;;
9657;SDS011;4867;48.112;11.622;2022-07-12T05:53:49;3.03;;;2.67;;
9657;SDS011;4867;48.112;11.622;2022-07-12T05:56:16;3.23;;;2.93;;
9657;SDS011;4867;48.112;11.622;2022-07-12T05:58:43;3.40;;;3.10;;
9657;SDS011;4867;48.112;11.622;2022-07-12T06:01:10;4.10;;;3.40;;
9657;SDS011;4867;48.112;11.622;2022-07-12T06:03:37;3.77;;;3.10;;
9657;SDS011;4867;48.112;11.622;2022-07-12T06:06:04;3.20;;;2.97;;
9657;SDS011;4867;48.112;11.622;2022-07-12T06:08:31;3.47;;;3.17;;
9657;SDS011;4867;48.112;11.622;2022-07-12T06:10:58;4.97;;;3.60;;
9657;SDS011;4867;48.112;11.622;2022-07-12T06:13:25;5.67;;;3.80;;
9657;SDS011;4867;48.112;11.622;2022-07-12T06:15:51;4.50;;;4.10;;
9657;SDS011;4867;48.112;11.622;2022-07-12T06:18:18;5.73;;;4.27;;
9657;SDS011;4867;48.112;11.622;2022-07-12T06:20:45;6.73;;;4.70;;
9657;SDS011;4867;48.112;11.622;2022-07-12T06:23:12;4.87;;;4.37;;
9657;SDS011;4867;48.112;11.622;2022-07-12T06:25:39;5.17;;;4.43;;
9657;SDS011;4867;48.112;11.622;2022-07-12T06:28:09;5.70;;;5.20;;
9657;SDS011;4867;48.112;11.622;2022-07-12T06:30:36;5.60;;;4.10;;
9657;SDS011;4867;48.112;11.622;2022-07-12T06:33:04;6.47;;;4.57;;
9657;SDS011;4867;48.112;11.622;2022-07-12T06:35:32;6.23;;;4.67;;
9657;SDS011;4867;48.112;11.622;2022-07-12T06:38:01;4.20;;;3.90;;
9657;SDS011;4867;48.112;11.622;2022-07-12T06:40:28;4.50;;;3.90;;
9657;SDS011;4867;48.112;11.622;2022-07-12T06:42:55;4.43;;;3.57;;
9657;SDS011;4867;48.112;11.622;2022-07-12T06:45:23;4.30;;;3.93;;
9657;SDS011;4867;48.112;11.622;2022-07-12T06:47:51;3.70;;;3.40;;
9657;SDS011;4867;48.112;11.622;2022-07-12T06:50:19;4.20;;;3.80;;
9657;SDS011;4867;48.112;11.622;2022-07-12T06:52:46;4.20;;;3.80;;
9657;SDS011;4867;48.112;11.622;2022-07-12T06:55:13;9.70;;;4.20;;
9657;SDS011;4867;48.112;11.622;2022-07-12T06:57:40;4.33;;;3.90;;
9657;SDS011;4867;48.112;11.622;2022-07-12T07:00:07;3.77;;;3.47;;
9657;SDS011;4867;48.112;11.622;2022-07-12T07:02:34;3.37;;;3.07;;
9657;SDS011;4867;48.112;11.622;2022-07-12T07:05:02;3.10;;;2.90;;
9657;SDS011;4867;48.112;11.622;2022-07-12T07:07:29;4.50;;;3.40;;
9657;SDS011;4867;48.112;11.622;2022-07-12T07:09:56;4.63;;;3.20;;
9657;SDS011;4867;48.112;11.622;2022-07-12T07:12:23;3.80;;;3.43;;
9657;SDS011;4867;48.112;11.622;2022-07-12T07:14:50;4.37;;;3.30;;
9657;SDS011;4867;48.112;11.622;2022-07-12T07:17:17;4.10;;;3.70;;
9657;SDS011;4867;48.112;11.622;2022-07-12T07:19:45;4.53;;;3.20;;
9657;SDS011;4867;48.112;11.622;2022-07-12T07:22:12;14.83;;;3.47;;
9657;SDS011;4867;48.112;11.622;2022-07-12T07:24:40;3.87;;;2.83;;
9657;SDS011;4867;48.112;11.622;2022-07-12T07:27:07;3.27;;;2.87;;
9657;SDS011;4867;48.112;11.622;2022-07-12T07:29:34;4.73;;;3.10;;
9657;SDS011;4867;48.112;11.622;2022-07-12T07:32:20;3.00;;;2.70;;
9657;SDS011;4867;48.112;11.622;2022-07-12T07:34:47;2.70;;;2.50;;
9657;SDS011;4867;48.112;11.622;2022-07-12T07:37:14;3.83;;;2.50;;
9657;SDS011;4867;48.112;11.622;2022-07-12T07:39:41;3.50;;;3.20;;
9657;SDS011;4867;48.112;11.622;2022-07-12T07:42:09;4.73;;;2.90;;
9657;SDS011;4867;48.112;11.622;2022-07-12T07:44:36;6.23;;;2.60;;
9657;SDS011;4867;48.112;11.622;2022-07-12T07:47:23;3.77;;;2.63;;
9657;SDS011;4867;48.112;11.622;2022-07-12T07:49:50;5.30;;;2.57;;
9657;SDS011;4867;48.112;11.622;2022-07-12T07:52:16;3.03;;;2.67;;
9657;SDS011;4867;48.112;11.622;2022-07-12T07:54:43;2.40;;;2.20;;
9657;SDS011;4867;48.112;11.622;2022-07-12T07:57:10;2.77;;;2.50;;
9657;SDS011;4867;48.112;11.622;2022-07-12T07:59:37;2.60;;;2.40;;
9657;SDS011;4867;48.112;11.622;2022-07-12T08:02:04;3.67;;;2.30;;
9657;SDS011;4867;48.112;11.622;2022-07-12T08:04:32;2.50;;;2.30;;
9657;SDS011;4867;48.112;11.622;2022-07-12T08:06:58;3.00;;;2.37;;
9657;SDS011;4867;48.112;11.622;2022-07-12T08:09:25;5.50;;;2.50;;
9657;SDS011;4867;48.112;11.622;2022-07-12T08:11:52;3.30;;;2.20;;
9657;SDS011;4867;48.112;11.622;2022-07-12T08:14:19;3.10;;;2.13;;
9657;SDS011;4867;48.112;11.622;2022-07-12T08:16:46;2.27;;;2.07;;
9657;SDS011;4867;48.112;11.622;2022-07-12T08:19:13;3.43;;;2.20;;
9657;SDS011;4867;48.112;11.622;2022-07-12T08:21:40;4.00;;;2.37;;
9657;SDS011;4867;48.112;11.622;2022-07-12T08:27:31;3.00;;;1.90;;
9657;SDS011;4867;48.112;11.622;2022-07-12T08:29:58;2.10;;;1.90;;
9657;SDS011;4867;48.112;11.622;2022-07-12T08:32:25;4.97;;;2.10;;
9657;SDS011;4867;48.112;11.622;2022-07-12T08:37:53;4.03;;;2.20;;
9657;SDS011;4867;48.112;11.622;2022-07-12T08:40:21;3.03;;;1.80;;
9657;SDS011;4867;48.112;11.622;2022-07-12T08:42:48;3.40;;;2.10;;
9657;SDS011;4867;48.112;11.622;2022-07-12T08:45:15;2.97;;;2.00;;
9657;SDS011;4867;48.112;11.622;2022-07-12T08:47:43;3.13;;;2.10;;
9657;SDS011;4867;48.112;11.622;2022-07-12T08:52:45;2.30;;;2.10;;
9657;SDS011;4867;48.112;11.622;2022-07-12T08:55:17;4.73;;;2.70;;
9657;SDS011;4867;48.112;11.622;2022-07-12T08:57:49;2.13;;;2.00;;
9657;SDS011;4867;48.112;11.622;2022-07-12T09:00:18;2.50;;;2.10;;
9657;SDS011;4867;48.112;11.622;2022-07-12T09:05:25;2.67;;;1.80;;
9657;SDS011;4867;48.112;11.622;2022-07-12T09:08:06;3.03;;;2.00;;
9657;SDS011;4867;48.112;11.622;2022-07-12T09:10:35;3.10;;;2.07;;
9657;SDS011;4867;48.112;11.622;2022-07-12T09:13:18;2.20;;;2.00;;
9657;SDS011;4867;48.112;11.622;2022-07-12T09:15:46;2.40;;;1.80;;
9657;SDS011;4867;48.112;11.622;2022-07-12T09:18:14;2.03;;;1.93;;
9657;SDS011;4867;48.112;11.622;2022-07-12T09:20:42;1.90;;;1.80;;
9657;SDS011;4867;48.112;11.622;2022-07-12T09:23:16;2.67;;;2.00;;
9657;SDS011;4867;48.112;11.622;2022-07-12T09:25:44;3.50;;;1.93;;
9657;SDS011;4867;48.112;11.622;2022-07-12T09:28:12;2.60;;;2.20;;
9657;SDS011;4867;48.112;11.622;2022-07-12T09:30:47;2.17;;;2.07;;
9657;SDS011;4867;48.112;11.622;2022-07-12T09:33:19;2.87;;;2.07;;
9657;SDS011;4867;48.112;11.622;2022-07-12T09:36:06;2.07;;;1.97;;
9657;SDS011;4867;48.112;11.622;2022-07-12T09:41:01;2.20;;;2.00;;
9657;SDS011;4867;48.112;11.622;2022-07-12T09:43:29;2.10;;;1.90;;
9657;SDS011;4867;48.112;11.622;2022-07-12T09:45:56;2.30;;;2.00;;
9657;SDS011;4867;48.112;11.622;2022-07-12T09:48:28;2.20;;;2.00;;
9657;SDS011;4867;48.112;11.622;2022-07-12T09:50:56;2.10;;;2.00;;
9657;SDS011;4867;48.112;11.622;2022-07-12T09:53:31;2.07;;;1.90;;
9657;SDS011;4867;48.112;11.622;2022-07-12T09:56:07;1.87;;;1.77;;
9657;SDS011;4867;48.112;11.622;2022-07-12T10:01:13;3.03;;;1.93;;
9657;SDS011;4867;48.112;11.622;2022-07-12T10:03:43;3.10;;;2.00;;
9657;SDS011;4867;48.112;11.622;2022-07-12T10:06:11;2.20;;;1.70;;
9657;SDS011;4867;48.112;11.622;2022-07-12T10:08:39;1.80;;;1.70;;
9657;SDS011;4867;48.112;11.622;2022-07-12T10:11:06;1.77;;;1.67;;
9657;SDS011;4867;48.112;11.622;2022-07-12T10:13:34;3.57;;;1.70;;
9657;SDS011;4867;48.112;11.622;2022-07-12T10:16:02;2.33;;;1.57;;
9657;SDS011;4867;48.112;11.622;2022-07-12T10:18:29;1.73;;;1.53;;
9657;SDS011;4867;48.112;11.622;2022-07-12T10:20:56;1.80;;;1.70;;
9657;SDS011;4867;48.112;11.622;2022-07-12T10:23:28;1.73;;;1.60;;
9657;SDS011;4867;48.112;11.622;2022-07-12T10:31:23;2.20;;;1.80;;
9657;SDS011;4867;48.112;11.622;2022-07-12T10:34:07;2.10;;;1.80;;
9657;SDS011;4867;48.112;11.622;2022-07-12T10:39:41;2.27;;;2.07;;
9657;SDS011;4867;48.112;11.622;2022-07-12T10:42:27;1.90;;;1.70;;
9657;SDS011;4867;48.112;11.622;2022-07-12T10:44:54;1.80;;;1.70;;
9657;SDS011;4867;48.112;11.622;2022-07-12T10:47:53;1.80;;;1.70;;
9657;SDS011;4867;48.112;11.622;2022-07-12T10:50:48;1.67;;;1.50;;
9657;SDS011;4867;48.112;11.622;2022-07-12T10:53:25;1.97;;;1.87;;
9657;SDS011;4867;48.112;11.622;2022-07-12T10:56:12;1.60;;;1.50;;
9657;SDS011;4867;48.112;11.622;2022-07-12T10:58:56;1.67;;;1.57;;
9657;SDS011;4867;48.112;11.622;2022-07-12T11:01:25;1.50;;;1.40;;
9657;SDS011;4867;48.112;11.622;2022-07-12T11:06:26;1.63;;;1.50;;
9657;SDS011;4867;48.112;11.622;2022-07-12T11:08:54;1.63;;;1.53;;
9657;SDS011;4867;48.112;11.622;2022-07-12T11:11:26;1.90;;;1.67;;
9657;SDS011;4867;48.112;11.622;2022-07-12T11:14:22;1.70;;;1.60;;
9657;SDS011;4867;48.112;11.622;2022-07-12T11:16:56;1.70;;;1.60;;
9657;SDS011;4867;48.112;11.622;2022-07-12T11:19:25;1.60;;;1.50;;
9657;SDS011;4867;48.112;11.622;2022-07-12T11:21:53;2.00;;;1.33;;
9657;SDS011;4867;48.112;11.622;2022-07-12T11:24:22;1.67;;;1.57;;
9657;SDS011;4867;48.112;11.622;2022-07-12T11:26:50;1.47;;;1.37;;
9657;SDS011;4867;48.112;11.622;2022-07-12T11:29:18;2.23;;;1.40;;
9657;SDS011;4867;48.112;11.622;2022-07-12T11:31:46;3.20;;;1.60;;
9657;SDS011;4867;48.112;11.622;2022-07-12T11:34:23;1.70;;;1.60;;
9657;SDS011;4867;48.112;11.622;2022-07-12T11:36:54;3.00;;;1.60;;
9657;SDS011;4867;48.112;11.622;2022-07-12T11:39:36;1.80;;;1.63;;
9657;SDS011;4867;48.112;11.622;2022-07-12T11:42:07;2.37;;;1.50;;
9657;SDS011;4867;48.112;11.622;2022-07-12T11:47:14;1.50;;;1.40;;
9657;SDS011;4867;48.112;11.622;2022-07-12T11:49:45;3.27;;;1.50;;
9657;SDS011;4867;48.112;11.622;2022-07-12T11:52:17;1.70;;;1.40;;
9657;SDS011;4867;48.112;11.622;2022-07-12T11:54:45;1.50;;;1.40;;
9657;SDS011;4867;48.112;11.622;2022-07-12T11:57:18;2.00;;;1.50;;
9657;SDS011;4867;48.112;11.622;2022-07-12T11:59:47;1.60;;;1.50;;
9657;SDS011;4867;48.112;11.622;2022-07-12T12:02:14;2.23;;;1.60;;
9657;SDS011;4867;48.112;11.622;2022-07-12T12:07:22;2.13;;;1.30;;
9657;SDS011;4867;48.112;11.622;2022-07-12T12:10:05;1.70;;;1.40;;
9657;SDS011;4867;48.112;11.622;2022-07-12T12:12:43;1.35;;;1.25;;
9657;SDS011;4867;48.112;11.622;2022-07-12T12:15:22;1.40;;;1.30;;
9657;SDS011;4867;48.112;11.622;2022-07-12T12:17:57;1.83;;;1.60;;
9657;SDS011;4867;48.112;11.622;2022-07-12T12:20:30;1.60;;;1.50;;
9657;SDS011;4867;48.112;11.622;2022-07-12T12:22:59;1.40;;;1.30;;
9657;SDS011;4867;48.112;11.622;2022-07-12T12:25:30;1.92;;;1.20;;
9657;SDS011;4867;48.112;11.622;2022-07-12T12:27:58;1.80;;;1.40;;
9657;SDS011;4867;48.112;11.622;2022-07-12T12:33:33;1.45;;;1.33;;
9657;SDS011;4867;48.112;11.622;2022-07-12T12:38:39;1.48;;;1.35;;
9657;SDS011;4867;48.112;11.622;2022-07-12T12:41:06;2.20;;;1.40;;
9657;SDS011;4867;48.112;11.622;2022-07-12T12:43:33;1.48;;;1.38;;
9657;SDS011;4867;48.112;11.622;2022-07-12T12:46:00;1.83;;;1.40;;
9657;SDS011;4867;48.112;11.622;2022-07-12T12:48:31;2.63;;;1.30;;
9657;SDS011;4867;48.112;11.622;2022-07-12T12:53:34;2.55;;;1.50;;
9657;SDS011;4867;48.112;11.622;2022-07-12T12:56:06;3.05;;;1.35;;
9657;SDS011;4867;48.112;11.622;2022-07-12T12:58:35;1.65;;;1.25;;
9657;SDS011;4867;48.112;11.622;2022-07-12T13:01:03;1.48;;;1.30;;
9657;SDS011;4867;48.112;11.622;2022-07-12T13:03:31;1.52;;;1.40;;
9657;SDS011;4867;48.112;11.622;2022-07-12T13:05:59;1.75;;;1.30;;
9657;SDS011;4867;48.112;11.622;2022-07-12T13:08:27;2.63;;;1.20;;
9657;SDS011;4867;48.112;11.622;2022-07-12T13:10:54;2.67;;;1.30;;
9657;SDS011;4867;48.112;11.622;2022-07-12T13:13:39;3.88;;;1.30;;
9657;SDS011;4867;48.112;11.622;2022-07-12T13:16:06;1.42;;;1.30;;
9657;SDS011;4867;48.112;11.622;2022-07-12T13:18:33;1.20;;;1.10;;
9657;SDS011;4867;48.112;11.622;2022-07-12T13:21:01;2.67;;;1.30;;
9657;SDS011;4867;48.112;11.622;2022-07-12T13:23:28;1.60;;;1.40;;
9657;SDS011;4867;48.112;11.622;2022-07-12T13:25:55;2.38;;;1.23;;
9657;SDS011;4867;48.112;11.622;2022-07-12T13:28:21;3.63;;;1.40;;
9657;SDS011;4867;48.112;11.622;2022-07-12T13:30:50;1.48;;;1.38;;
9657;SDS011;4867;48.112;11.622;2022-07-12T13:33:19;1.42;;;1.30;;
9657;SDS011;4867;48.112;11.622;2022-07-12T13:35:46;1.45;;;1.35;;
9657;SDS011;4867;48.112;11.622;2022-07-12T13:38:13;1.75;;;1.30;;
9657;SDS011;4867;48.112;11.622;2022-07-12T13:40:39;2.00;;;1.30;;
9657;SDS011;4867;48.112;11.622;2022-07-12T13:43:06;3.58;;;1.30;;
9657;SDS011;4867;48.112;11.622;2022-07-12T13:45:33;4.05;;;1.40;;
9657;SDS011;4867;48.112;11.622;2022-07-12T13:48:01;3.72;;;1.60;;
9657;SDS011;4867;48.112;11.622;2022-07-12T13:50:28;2.25;;;1.20;;
9657;SDS011;4867;48.112;11.622;2022-07-12T13:52:58;1.40;;;1.30;;
9657;SDS011;4867;48.112;11.622;2022-07-12T13:55:26;1.40;;;1.30;;
9657;SDS011;4867;48.112;11.622;2022-07-12T13:57:54;1.55;;;1.20;;
9657;SDS011;4867;48.112;11.622;2022-07-12T14:00:22;1.92;;;1.38;;
9657;SDS011;4867;48.112;11.622;2022-07-12T14:02:49;2.55;;;1.58;;
9657;SDS011;4867;48.112;11.622;2022-07-12T14:05:20;1.15;;;1.10;;
9657;SDS011;4867;48.112;11.622;2022-07-12T14:07:48;1.20;;;1.10;;
9657;SDS011;4867;48.112;11.622;2022-07-12T14:10:16;2.55;;;1.38;;
9657;SDS011;4867;48.112;11.622;2022-07-12T14:12:43;4.60;;;1.30;;
9657;SDS011;4867;48.112;11.622;2022-07-12T14:15:10;1.30;;;1.20;;
9657;SDS011;4867;48.112;11.622;2022-07-12T14:17:40;2.22;;;1.25;;
9657;SDS011;4867;48.112;11.622;2022-07-12T14:20:11;1.30;;;1.20;;
9657;SDS011;4867;48.112;11.622;2022-07-12T14:22:39;1.83;;;1.23;;
9657;SDS011;4867;48.112;11.622;2022-07-12T14:25:07;1.40;;;1.30;;
9657;SDS011;4867;48.112;11.622;2022-07-12T14:27:35;2.72;;;1.25;;
9657;SDS011;4867;48.112;11.622;2022-07-12T14:30:04;2.10;;;1.27;;
9657;SDS011;4867;48.112;11.622;2022-07-12T14:32:35;2.22;;;1.30;;
9657;SDS011;4867;48.112;11.622;2022-07-12T14:35:03;1.27;;;1.10;;
9657;SDS011;4867;48.112;11.622;2022-07-12T14:37:32;3.00;;;1.23;;
9657;SDS011;4867;48.112;11.622;2022-07-12T14:40:00;1.52;;;1.42;;
9657;SDS011;4867;48.112;11.622;2022-07-12T14:42:27;4.75;;;1.33;;
9657;SDS011;4867;48.112;11.622;2022-07-12T14:44:54;2.20;;;1.20;;
9657;SDS011;4867;48.112;11.622;2022-07-12T14:47:22;1.80;;;1.30;;
9657;SDS011;4867;48.112;11.622;2022-07-12T14:49:49;4.18;;;1.30;;
9657;SDS011;4867;48.112;11.622;2022-07-12T14:52:16;1.55;;;1.45;;
9657;SDS011;4867;48.112;11.622;2022-07-12T14:54:43;1.23;;;1.10;;
9657;SDS011;4867;48.112;11.622;2022-07-12T14:57:11;1.58;;;1.30;;
9657;SDS011;4867;48.112;11.622;2022-07-12T14:59:38;1.30;;;1.20;;
9657;SDS011;4867;48.112;11.622;2022-07-12T15:02:05;2.58;;;1.30;;
9657;SDS011;4867;48.112;11.622;2022-07-12T15:04:32;1.67;;;1.30;;
9657;SDS011;4867;48.112;11.622;2022-07-12T15:06:59;1.60;;;1.30;;
9657;SDS011;4867;48.112;11.622;2022-07-12T15:09:26;1.27;;;1.17;;
9657;SDS011;4867;48.112;11.622;2022-07-12T15:11:53;4.55;;;1.95;;
9657;SDS011;4867;48.112;11.622;2022-07-12T15:14:21;2.78;;;1.52;;
9657;SDS011;4867;48.112;11.622;2022-07-12T15:16:48;3.20;;;1.60;;
9657;SDS011;4867;48.112;11.622;2022-07-12T15:19:15;1.88;;;1.45;;
9657;SDS011;4867;48.112;11.622;2022-07-12T15:21:42;1.42;;;1.33;;
9657;SDS011;4867;48.112;11.622;2022-07-12T15:24:09;1.75;;;1.45;;
9657;SDS011;4867;48.112;11.622;2022-07-12T15:26:36;2.60;;;1.45;;
9657;SDS011;4867;48.112;11.622;2022-07-12T15:29:04;2.67;;;1.30;;
9657;SDS011;4867;48.112;11.622;2022-07-12T15:31:31;2.22;;;1.20;;
9657;SDS011;4867;48.112;11.622;2022-07-12T15:34:02;2.15;;;1.10;;
9657;SDS011;4867;48.112;11.622;2022-07-12T15:36:31;1.48;;;1.20;;
9657;SDS011;4867;48.112;11.622;2022-07-12T15:38:59;1.30;;;1.20;;
9657;SDS011;4867;48.112;11.622;2022-07-12T15:41:26;2.30;;;1.30;;
9657;SDS011;4867;48.112;11.622;2022-07-12T15:43:54;2.90;;;1.30;;
9657;SDS011;4867;48.112;11.622;2022-07-12T15:46:21;1.60;;;1.23;;
9657;SDS011;4867;48.112;11.622;2022-07-12T15:48:48;1.50;;;1.40;;
9657;SDS011;4867;48.112;11.622;2022-07-12T15:51:14;1.80;;;1.30;;